createdAt,value
2023-01-20T00:01:48.921Z,38.53
2023-01-20T00:04:20.315Z,34.45
2023-01-20T00:06:49.160Z,31.45
2023-01-20T00:09:19.493Z,31.20
2023-01-20T00:11:48.798Z,33.13
2023-01-20T00:14:18.109Z,33.08
2023-01-20T00:16:46.835Z,33.58
2023-01-20T00:19:15.998Z,29.15
2023-01-20T00:21:44.879Z,27.50
2023-01-20T00:24:13.623Z,26.27
2023-01-20T00:26:42.395Z,28.48
2023-01-20T00:29:11.677Z,28.45
2023-01-20T00:31:40.703Z,27.05
2023-01-20T00:34:11.162Z,29.48
2023-01-20T00:36:40.102Z,25.48
2023-01-20T00:39:08.855Z,24.20
2023-01-20T00:41:37.527Z,25.75
2023-01-20T00:44:06.551Z,23.83
2023-01-20T00:46:35.369Z,23.48
2023-01-20T00:49:04.101Z,23.40
2023-01-20T00:51:32.826Z,26.33
2023-01-20T00:54:01.685Z,20.48
2023-01-20T00:56:30.401Z,22.33
2023-01-20T00:58:59.165Z,25.45
2023-01-20T01:01:28.057Z,22.48
2023-01-20T01:03:56.844Z,22.02
2023-01-20T01:06:25.567Z,19.65
2023-01-20T01:08:54.447Z,21.45
2023-01-20T01:11:23.152Z,21.08
2023-01-20T01:13:51.925Z,17.55
2023-01-20T01:16:20.733Z,18.30
2023-01-20T01:18:49.673Z,20.33
2023-01-20T01:21:19.208Z,14.75
2023-01-20T01:23:48.232Z,15.88
2023-01-20T01:26:17.164Z,14.85
2023-01-20T01:28:48.829Z,21.52
2023-01-20T01:31:20.118Z,15.52
2023-01-20T01:33:49.298Z,13.20
2023-01-20T01:36:19.273Z,13.52
2023-01-20T01:38:58.487Z,13.00
2023-01-20T01:41:28.351Z,29.80
2023-01-20T01:44:08.012Z,14.75
2023-01-20T01:46:37.894Z,13.60
2023-01-20T01:49:13.757Z,13.43
2023-01-20T01:52:04.562Z,13.65
2023-01-20T01:54:38.543Z,12.77
2023-01-20T01:57:11.105Z,11.57
2023-01-20T01:59:40.396Z,12.55
2023-01-20T02:02:09.161Z,12.23
2023-01-20T02:04:39.676Z,10.70
2023-01-20T02:07:16.687Z,12.60
2023-01-20T02:09:45.856Z,11.13
2023-01-20T02:12:19.192Z,11.15
2023-01-20T02:14:53.138Z,12.57
2023-01-20T02:17:42.021Z,11.05
2023-01-20T02:20:38.315Z,11.63
2023-01-20T02:23:35.560Z,13.98
2023-01-20T02:26:43.493Z,13.45
2023-01-20T02:29:51.405Z,13.00
2023-01-20T02:32:22.079Z,12.13
2023-01-20T02:35:02.823Z,10.70
2023-01-20T02:37:41.885Z,12.50
2023-01-20T02:40:37.850Z,11.63
2023-01-20T02:43:20.432Z,11.70
2023-01-20T02:46:04.764Z,11.77
2023-01-20T02:48:40.859Z,10.07
2023-01-20T02:51:18.867Z,11.85
2023-01-20T02:53:54.511Z,14.93
2023-01-20T02:56:26.886Z,11.63
2023-01-20T02:59:02.360Z,10.77
2023-01-20T03:01:38.843Z,9.43
2023-01-20T03:04:11.925Z,11.35
2023-01-20T03:09:17.256Z,12.05
2023-01-20T03:11:52.936Z,10.38
2023-01-20T03:14:21.878Z,11.43
2023-01-20T03:16:51.466Z,10.40
2023-01-20T03:19:21.577Z,14.18
2023-01-20T03:21:50.976Z,10.90
2023-01-20T03:24:19.873Z,10.35
2023-01-20T03:26:48.576Z,10.85
2023-01-20T03:29:19.365Z,11.85
2023-01-20T03:31:54.596Z,10.25
2023-01-20T03:34:26.298Z,11.70
2023-01-20T03:36:56.862Z,12.32
2023-01-20T03:39:27.330Z,12.27
2023-01-20T03:42:16.896Z,11.90
2023-01-20T03:45:09.633Z,9.00
2023-01-20T03:47:48.435Z,9.77
2023-01-20T03:50:34.127Z,10.88
2023-01-20T03:53:18.483Z,10.20
2023-01-20T03:55:58.176Z,10.80
2023-01-20T03:58:32.559Z,12.57
2023-01-20T04:01:18.030Z,13.40
2023-01-20T04:03:51.994Z,12.98
2023-01-20T04:08:57.184Z,9.88
2023-01-20T04:11:28.234Z,12.18
2023-01-20T04:13:57.118Z,8.88
2023-01-20T04:16:28.010Z,10.02
2023-01-20T04:18:56.853Z,12.30
2023-01-20T04:21:31.305Z,7.60
2023-01-20T04:24:23.886Z,9.43
2023-01-20T04:26:52.638Z,14.70
2023-01-20T04:29:21.514Z,8.07
2023-01-20T04:31:50.377Z,7.25
2023-01-20T04:34:19.290Z,8.07
2023-01-20T04:36:48.058Z,10.23
2023-01-20T04:39:16.852Z,8.43
2023-01-20T04:41:45.673Z,10.00
2023-01-20T04:44:14.374Z,9.25
2023-01-20T04:46:43.256Z,9.05
2023-01-20T04:49:12.430Z,9.90
2023-01-20T04:51:41.499Z,11.75
2023-01-20T04:54:10.515Z,9.07
2023-01-20T04:56:39.224Z,7.53
2023-01-20T04:59:08.134Z,8.48
2023-01-20T05:01:37.038Z,8.40
2023-01-20T05:04:05.889Z,7.07
2023-01-20T05:06:36.403Z,7.47
2023-01-20T05:09:05.468Z,7.15
2023-01-20T05:11:34.164Z,12.48
2023-01-20T05:14:03.178Z,8.95
2023-01-20T05:16:33.091Z,8.82
2023-01-20T05:19:02.549Z,9.13
2023-01-20T05:21:31.514Z,9.20
2023-01-20T05:24:00.401Z,7.55
2023-01-20T05:26:29.248Z,9.13
2023-01-20T05:28:58.133Z,10.00
2023-01-20T05:31:27.177Z,7.30
2023-01-20T05:33:56.011Z,8.13
2023-01-20T05:36:24.890Z,8.40
2023-01-20T05:38:53.628Z,7.97
2023-01-20T05:41:23.235Z,8.05
2023-01-20T05:43:55.359Z,8.23
2023-01-20T05:46:24.493Z,8.53
2023-01-20T05:48:53.357Z,8.68
2023-01-20T05:51:22.182Z,8.52
2023-01-20T05:53:50.932Z,8.45
2023-01-20T05:56:19.718Z,9.35
2023-01-20T05:58:48.509Z,10.07
2023-01-20T06:01:17.446Z,9.02
2023-01-20T06:03:46.360Z,9.38
2023-01-20T06:06:18.190Z,11.05
2023-01-20T06:16:29.350Z,11.55
2023-01-20T06:18:58.792Z,12.95
2023-01-20T06:21:27.595Z,9.75
2023-01-20T06:23:56.423Z,10.25
2023-01-20T06:26:25.181Z,8.93
2023-01-20T06:28:53.957Z,9.30
2023-01-20T06:31:22.849Z,12.93
2023-01-20T06:33:51.644Z,8.63
2023-01-20T06:36:20.417Z,9.15
2023-01-20T06:38:51.649Z,8.35
2023-01-20T06:41:21.809Z,10.45
2023-01-20T06:43:52.246Z,6.75
2023-01-20T06:46:21.178Z,6.85
2023-01-20T06:48:50.179Z,10.68
2023-01-20T06:51:21.422Z,8.45
2023-01-20T06:53:50.279Z,8.00
2023-01-20T06:56:19.106Z,7.97
2023-01-20T06:58:47.919Z,7.38
2023-01-20T07:01:23.133Z,8.43
2023-01-20T07:03:52.287Z,7.45
2023-01-20T07:06:39.549Z,6.07
2023-01-20T07:09:10.593Z,7.95
2023-01-20T07:11:40.722Z,8.98
2023-01-20T07:14:09.842Z,5.45
2023-01-20T07:16:39.014Z,6.25
2023-01-20T07:19:07.946Z,9.85
2023-01-20T07:21:36.670Z,6.63
2023-01-20T07:24:05.743Z,6.18
2023-01-20T07:26:34.622Z,5.20
2023-01-20T07:29:03.493Z,5.30
2023-01-20T07:31:32.659Z,5.13
2023-01-20T07:34:01.861Z,5.57
2023-01-20T07:36:30.652Z,6.68
2023-01-20T07:38:59.410Z,7.90
2023-01-20T07:41:28.326Z,7.88
2023-01-20T07:43:57.560Z,8.35
2023-01-20T07:46:26.559Z,7.95
2023-01-20T07:48:56.943Z,10.18
2023-01-20T07:51:25.833Z,6.80
2023-01-20T07:53:54.798Z,7.32
2023-01-20T07:56:27.811Z,11.43
2023-01-20T08:01:29.846Z,6.20
2023-01-20T08:04:01.573Z,7.50
2023-01-20T08:06:32.149Z,10.52
2023-01-20T08:09:03.497Z,6.13
2023-01-20T08:11:34.441Z,7.47
2023-01-20T08:14:03.370Z,7.25
2023-01-20T08:16:32.471Z,7.95
2023-01-20T08:19:01.398Z,7.60
2023-01-20T08:21:32.428Z,11.27
2023-01-20T08:24:03.843Z,10.63
2023-01-20T08:26:34.002Z,10.00
2023-01-20T08:29:07.346Z,7.25
2023-01-20T08:31:37.068Z,6.60
2023-01-20T08:34:06.541Z,9.68
2023-01-20T08:36:37.979Z,5.63
2023-01-20T08:39:09.203Z,8.40
2023-01-20T08:41:40.538Z,5.97
2023-01-20T08:44:10.646Z,8.02
2023-01-20T08:46:41.848Z,10.85
2023-01-20T08:49:14.083Z,11.88
2023-01-20T08:51:44.763Z,7.30
2023-01-20T08:54:15.701Z,6.93
2023-01-20T08:56:45.102Z,11.02
2023-01-20T08:59:13.964Z,7.38
2023-01-20T09:01:44.320Z,7.45
2023-01-20T09:04:13.726Z,6.82
2023-01-20T09:06:48.300Z,8.63
2023-01-20T09:09:19.711Z,9.43
2023-01-20T09:11:53.891Z,10.00
2023-01-20T09:14:25.173Z,8.68
2023-01-20T09:16:54.144Z,7.00
2023-01-20T09:19:22.992Z,6.90
2023-01-20T09:21:51.818Z,11.45
2023-01-20T09:24:20.689Z,11.38
2023-01-20T09:26:50.713Z,7.47
2023-01-20T09:29:21.954Z,5.72
2023-01-20T09:31:53.479Z,7.63
2023-01-20T09:34:22.929Z,5.90
2023-01-20T09:36:57.856Z,10.23
2023-01-20T09:39:46.524Z,12.70
2023-01-20T09:42:53.232Z,32.63
2023-01-20T09:45:46.350Z,9.98
2023-01-20T09:48:39.249Z,10.00
2023-01-20T09:51:36.960Z,7.75
2023-01-20T09:54:15.843Z,9.48
2023-01-20T09:56:49.329Z,13.98
2023-01-20T09:59:40.319Z,8.70
2023-01-20T10:02:18.948Z,8.18
2023-01-20T10:04:54.239Z,9.05
2023-01-20T10:07:25.258Z,11.90
2023-01-20T10:10:01.788Z,11.13
2023-01-20T10:12:37.078Z,9.43
2023-01-20T10:15:30.326Z,9.65
2023-01-20T10:18:10.356Z,9.27
2023-01-20T10:20:56.905Z,9.23
2023-01-20T10:23:50.195Z,8.80
2023-01-20T10:26:26.293Z,12.10
2023-01-20T10:29:02.402Z,10.63
2023-01-20T10:31:36.177Z,11.77
2023-01-20T10:34:13.714Z,12.35
2023-01-20T10:36:47.357Z,10.10
2023-01-20T10:39:36.180Z,14.10
2023-01-20T10:42:11.470Z,15.90
2023-01-20T10:44:40.864Z,13.80
2023-01-20T10:47:40.492Z,12.57
2023-01-20T10:50:18.151Z,22.92
2023-01-20T10:53:07.007Z,17.40
2023-01-20T10:55:59.778Z,20.95
2023-01-20T10:58:33.364Z,21.38
2023-01-20T11:01:05.738Z,14.18
2023-01-20T11:03:40.942Z,14.15
2023-01-20T11:06:27.833Z,18.08
2023-01-20T11:08:57.478Z,15.32
2023-01-20T11:11:30.515Z,13.60
2023-01-20T11:14:00.650Z,17.17
2023-01-20T11:16:30.081Z,15.73
2023-01-20T11:19:04.024Z,13.05
2023-01-20T11:21:37.623Z,16.85
2023-01-20T11:24:45.743Z,15.15
2023-01-20T11:27:21.570Z,19.45
2023-01-20T11:29:57.261Z,21.25
2023-01-20T11:32:34.462Z,16.40
2023-01-20T11:35:20.112Z,20.50
2023-01-20T11:37:48.917Z,22.45
2023-01-20T11:40:25.086Z,21.10
2023-01-20T11:42:55.881Z,25.95
2023-01-20T11:45:37.571Z,23.13
2023-01-20T11:48:18.052Z,24.58
2023-01-20T11:50:51.319Z,25.83
2023-01-20T11:53:25.823Z,21.25
2023-01-20T11:56:00.059Z,24.02
2023-01-20T11:58:52.420Z,19.20
2023-01-20T12:01:26.293Z,17.05
2023-01-20T12:04:19.080Z,23.98
2023-01-20T12:07:11.416Z,19.05
2023-01-20T12:09:45.235Z,21.50
2023-01-20T12:12:30.477Z,20.55
2023-01-20T12:15:11.330Z,23.95
2023-01-20T12:17:48.646Z,22.30
2023-01-20T12:20:54.519Z,16.65
2023-01-20T12:23:46.741Z,23.75
2023-01-20T12:26:18.303Z,20.42
2023-01-20T12:29:10.252Z,24.65
2023-01-20T12:31:38.923Z,22.70
2023-01-20T12:34:14.986Z,26.48
2023-01-20T12:37:22.937Z,22.83
2023-01-20T12:40:09.208Z,27.95
2023-01-20T12:42:57.900Z,29.23
2023-01-20T12:45:36.195Z,31.80
2023-01-20T12:48:24.965Z,34.15
2023-01-20T12:51:10.853Z,33.95
2023-01-20T12:54:03.147Z,30.65
2023-01-20T12:56:35.173Z,35.83
2023-01-20T12:59:24.186Z,29.55
2023-01-20T13:02:38.465Z,21.65
2023-01-20T13:05:27.160Z,25.88
2023-01-20T13:08:37.412Z,26.88
2023-01-20T13:11:14.973Z,22.27
2023-01-20T13:14:00.240Z,25.15
2023-01-20T13:16:37.632Z,20.35
2023-01-20T13:19:17.681Z,20.50
2023-01-20T13:21:54.034Z,24.23
2023-01-20T13:24:32.288Z,24.45
2023-01-20T13:27:02.968Z,25.95
2023-01-20T13:29:44.059Z,26.67
2023-01-20T13:32:33.969Z,29.10
2023-01-20T13:35:23.387Z,23.52
2023-01-20T13:37:58.987Z,23.58
2023-01-20T13:40:50.541Z,28.38
2023-01-20T13:43:36.809Z,24.35
2023-01-20T13:46:07.007Z,25.00
2023-01-20T13:48:38.820Z,28.90
2023-01-20T13:51:28.765Z,26.05
2023-01-20T13:54:36.537Z,25.98
2023-01-20T13:57:28.861Z,27.70
2023-01-20T13:59:58.098Z,28.15
2023-01-20T14:02:29.305Z,25.40
2023-01-20T14:04:59.803Z,28.63
2023-01-20T14:07:31.674Z,30.58
2023-01-20T14:10:02.530Z,27.35
2023-01-20T14:12:31.327Z,27.52
2023-01-20T14:15:00.863Z,31.95
2023-01-20T14:17:29.764Z,32.83
2023-01-20T14:19:58.736Z,31.02
2023-01-20T14:22:33.203Z,29.45
2023-01-20T14:25:02.763Z,34.53
2023-01-20T14:27:36.351Z,30.50
2023-01-20T14:30:25.867Z,29.67
2023-01-20T14:32:55.383Z,36.30
2023-01-20T14:35:28.531Z,34.33
2023-01-20T14:37:57.510Z,37.65
2023-01-20T14:40:30.294Z,33.47
2023-01-20T14:43:04.599Z,33.25
2023-01-20T14:45:35.498Z,34.70
2023-01-20T14:48:06.122Z,34.42
2023-01-20T14:50:35.263Z,30.23
2023-01-20T14:53:05.079Z,32.20
2023-01-20T14:55:37.836Z,39.15
2023-01-20T14:58:18.758Z,34.55
2023-01-20T15:00:51.105Z,36.70
2023-01-20T15:03:32.258Z,34.33
2023-01-20T15:06:20.989Z,40.28
2023-01-20T15:09:05.736Z,37.33
2023-01-20T15:11:35.567Z,35.55
2023-01-20T15:14:06.287Z,35.22
2023-01-20T15:16:42.788Z,32.75
2023-01-20T15:19:30.015Z,31.80
2023-01-20T15:22:21.546Z,35.30
2023-01-20T15:24:51.885Z,34.40
2023-01-20T15:27:31.570Z,30.80
2023-01-20T15:30:20.616Z,29.85
2023-01-20T15:32:50.460Z,32.65
2023-01-20T15:35:22.193Z,35.45
2023-01-20T15:37:51.376Z,34.13
2023-01-20T15:40:24.094Z,39.80
2023-01-20T15:42:54.495Z,34.20
2023-01-20T15:45:23.427Z,29.55
2023-01-20T15:47:52.316Z,37.95
2023-01-20T15:50:25.253Z,34.58
2023-01-20T15:52:54.077Z,31.35
2023-01-20T15:55:23.131Z,32.03
2023-01-20T15:57:53.755Z,35.85
2023-01-20T16:00:24.706Z,35.03
2023-01-20T16:02:54.030Z,35.20
2023-01-20T16:05:23.398Z,35.22
2023-01-20T16:07:52.526Z,34.83
2023-01-20T16:10:21.645Z,33.50
2023-01-20T16:12:50.756Z,37.05
2023-01-20T16:15:20.081Z,33.28
2023-01-20T16:17:49.012Z,31.98
2023-01-20T16:20:22.537Z,32.47
2023-01-20T16:22:51.872Z,32.30
2023-01-20T16:25:22.198Z,35.40
2023-01-20T16:27:51.313Z,39.17
2023-01-20T16:30:23.055Z,36.45
2023-01-20T16:32:52.472Z,30.48
2023-01-20T16:35:24.588Z,34.15
2023-01-20T16:37:54.000Z,33.47
2023-01-20T16:40:23.642Z,34.47
2023-01-20T16:42:55.729Z,33.72
2023-01-20T16:45:30.578Z,35.58
2023-01-20T16:47:59.638Z,39.78
2023-01-20T16:50:29.457Z,41.63
2023-01-20T16:52:58.440Z,41.85
2023-01-20T16:55:27.380Z,39.65
2023-01-20T16:57:56.334Z,39.25
2023-01-20T17:04:00.298Z,38.25
2023-01-20T17:06:32.133Z,39.88
2023-01-20T17:09:03.070Z,38.53
2023-01-20T17:11:41.431Z,37.53
2023-01-20T17:14:12.482Z,39.60
2023-01-20T17:16:41.911Z,39.80
2023-01-20T17:19:11.310Z,37.28
2023-01-20T17:21:40.843Z,37.85
2023-01-20T17:24:09.884Z,40.55
2023-01-20T17:26:39.017Z,41.60
2023-01-20T17:29:08.124Z,39.85
2023-01-20T17:31:37.870Z,44.38
2023-01-20T17:34:07.663Z,43.13
2023-01-20T17:36:36.509Z,40.33
2023-01-20T17:39:06.897Z,42.15
2023-01-20T17:41:36.254Z,43.58
2023-01-20T17:44:06.801Z,39.78
2023-01-20T17:46:35.622Z,39.72
2023-01-20T17:49:08.920Z,38.65
2023-01-20T17:51:37.811Z,42.85
2023-01-20T17:54:06.599Z,35.35
2023-01-20T17:56:35.563Z,38.50
2023-01-20T17:59:04.361Z,38.90
2023-01-20T18:01:34.266Z,38.03
2023-01-20T18:04:05.819Z,35.67
2023-01-20T18:06:36.336Z,38.42
2023-01-20T18:09:08.374Z,35.85
2023-01-20T18:11:38.518Z,37.22
2023-01-20T18:14:08.651Z,37.45
2023-01-20T18:16:42.504Z,40.67
2023-01-20T18:19:14.925Z,39.42
2023-01-20T18:21:45.336Z,42.72
2023-01-20T18:24:14.542Z,36.95
2023-01-20T18:26:44.209Z,39.60
2023-01-20T18:29:17.442Z,34.35
2023-01-20T18:31:47.445Z,36.30
2023-01-20T18:34:16.832Z,35.15
2023-01-20T18:36:47.319Z,36.45
2023-01-20T18:39:20.108Z,36.30
2023-01-20T18:41:50.058Z,36.22
2023-01-20T18:44:19.952Z,33.63
2023-01-20T18:46:49.117Z,35.05
2023-01-20T18:49:18.786Z,36.67
2023-01-20T18:51:47.881Z,33.20
2023-01-20T18:54:18.780Z,33.83
2023-01-20T18:56:48.326Z,32.75
2023-01-20T18:59:17.190Z,33.92
2023-01-20T19:01:45.964Z,32.80
2023-01-20T19:04:15.193Z,34.72
2023-01-20T19:06:45.841Z,35.53
2023-01-20T19:09:17.153Z,35.10
2023-01-20T19:11:45.958Z,35.25
2023-01-20T19:14:16.340Z,32.03
2023-01-20T19:16:49.940Z,34.42
2023-01-20T19:19:19.974Z,34.55
2023-01-20T19:21:53.121Z,34.03
2023-01-20T19:24:23.158Z,33.83
2023-01-20T19:26:51.931Z,34.13
2023-01-20T19:29:21.729Z,33.15
2023-01-20T19:31:50.547Z,36.25
2023-01-20T19:34:19.354Z,33.83
2023-01-20T19:36:48.243Z,35.85
2023-01-20T19:39:17.216Z,34.08
2023-01-20T19:41:46.003Z,35.00
2023-01-20T19:44:14.995Z,33.28
2023-01-20T19:46:43.780Z,36.85
2023-01-20T19:49:13.336Z,33.22
2023-01-20T19:51:42.296Z,34.75
2023-01-20T19:54:14.551Z,32.47
2023-01-20T19:56:43.416Z,36.88
2023-01-20T19:59:14.833Z,35.58
2023-01-20T20:01:43.877Z,37.85
2023-01-20T20:04:14.638Z,37.50
2023-01-20T20:06:48.057Z,34.75
2023-01-20T20:09:21.184Z,34.33
2023-01-20T20:11:50.627Z,36.35
2023-01-20T20:14:21.459Z,36.40
2023-01-20T20:16:51.740Z,35.35
2023-01-20T20:19:21.181Z,35.20
2023-01-20T20:21:50.046Z,35.08
2023-01-20T20:24:20.038Z,33.92
2023-01-20T20:26:49.973Z,34.75
2023-01-20T20:29:21.434Z,37.03
2023-01-20T20:31:52.002Z,32.88
2023-01-20T20:34:21.665Z,33.92
2023-01-20T20:36:50.550Z,34.78
2023-01-20T20:39:20.824Z,37.28
2023-01-20T20:41:49.637Z,33.78
2023-01-20T20:44:18.546Z,34.42
2023-01-20T20:46:47.403Z,32.88
2023-01-20T20:49:17.304Z,33.42
2023-01-20T20:51:46.396Z,32.55
2023-01-20T20:54:17.903Z,32.05
2023-01-20T20:56:47.985Z,33.05
2023-01-20T20:59:30.128Z,32.72
2023-01-20T21:01:59.104Z,31.98
2023-01-20T21:04:28.260Z,32.08
2023-01-20T21:06:57.482Z,31.48
2023-01-20T21:09:27.320Z,30.38
2023-01-20T21:11:56.143Z,32.47
2023-01-20T21:14:26.431Z,32.55
2023-01-20T21:16:55.357Z,31.73
2023-01-20T21:19:24.184Z,32.00
2023-01-20T21:21:52.940Z,29.75
2023-01-20T21:24:26.882Z,31.48
2023-01-20T21:26:56.204Z,33.08
2023-01-20T21:29:27.227Z,30.20
2023-01-20T21:32:16.753Z,30.73
2023-01-20T21:34:53.563Z,31.60
2023-01-20T21:37:22.403Z,31.27
2023-01-20T21:39:59.428Z,31.23
2023-01-20T21:42:28.669Z,28.45
2023-01-20T21:44:58.173Z,30.45
2023-01-20T21:47:27.828Z,32.40
2023-01-20T21:50:16.684Z,29.17
2023-01-20T21:52:46.377Z,30.98
2023-01-20T21:55:20.286Z,30.30
2023-01-20T21:57:51.314Z,32.22
2023-01-20T22:00:20.703Z,31.42
2023-01-20T22:02:51.779Z,29.90
2023-01-20T22:05:21.165Z,33.25
2023-01-20T22:07:49.994Z,30.67
2023-01-20T22:10:19.001Z,31.77
2023-01-20T22:13:04.399Z,32.10
2023-01-20T22:15:35.044Z,30.50
2023-01-20T22:18:03.748Z,31.85
2023-01-20T22:20:32.521Z,31.95
2023-01-20T22:23:01.234Z,31.25
2023-01-20T22:25:30.036Z,32.58
2023-01-20T22:28:00.111Z,31.40
2023-01-20T22:30:29.173Z,31.15
2023-01-20T22:32:58.094Z,32.42
2023-01-20T22:35:31.693Z,32.28
2023-01-20T22:38:00.777Z,31.42
2023-01-20T22:40:29.558Z,33.13
2023-01-20T22:42:58.340Z,30.55
2023-01-20T22:45:27.525Z,31.98
2023-01-20T22:47:57.756Z,30.55
2023-01-20T22:50:26.530Z,33.42
2023-01-20T22:52:55.446Z,32.90
2023-01-20T22:55:24.507Z,32.00
2023-01-20T22:57:53.173Z,33.03
2023-01-20T23:00:24.166Z,35.08
2023-01-20T23:02:53.088Z,34.17
2023-01-20T23:05:25.767Z,34.67
2023-01-20T23:07:54.589Z,34.80
2023-01-20T23:10:42.946Z,33.97
2023-01-20T23:13:11.709Z,34.08
2023-01-20T23:15:40.348Z,32.78
2023-01-20T23:18:09.384Z,33.88
2023-01-20T23:20:38.311Z,74.45
2023-01-20T23:23:07.811Z,65.60
2023-01-20T23:25:36.684Z,33.35
2023-01-20T23:28:05.574Z,34.53
2023-01-20T23:30:34.343Z,32.60
2023-01-20T23:33:03.166Z,33.35
2023-01-20T23:35:32.260Z,33.60
2023-01-20T23:38:01.052Z,34.35
2023-01-20T23:40:31.279Z,36.08
2023-01-20T23:43:00.051Z,36.08
2023-01-20T23:45:29.772Z,40.58
2023-01-20T23:47:58.577Z,43.38
2023-01-20T23:50:27.427Z,42.60
2023-01-20T23:52:56.169Z,40.58
2023-01-20T23:55:24.960Z,40.20
2023-01-20T23:57:53.740Z,42.55
